createdAt,value
2018-12-10T00:02:17.952Z,3.17
2018-12-10T00:04:45.828Z,3.10
2018-12-10T00:07:13.322Z,3.15
2018-12-10T00:09:41.188Z,2.40
2018-12-10T00:12:08.689Z,3.20
2018-12-10T00:14:36.242Z,2.90
2018-12-10T00:17:03.951Z,2.80
2018-12-10T00:19:32.101Z,3.17
2018-12-10T00:22:00.743Z,2.30
2018-12-10T00:24:29.141Z,3.60
2018-12-10T00:26:57.826Z,3.00
2018-12-10T00:29:25.358Z,3.00
2018-12-10T00:31:53.836Z,2.85
2018-12-10T00:34:21.583Z,2.98
2018-12-10T00:36:49.475Z,3.20
2018-12-10T00:39:17.189Z,2.80
2018-12-10T00:41:45.098Z,2.67
2018-12-10T00:44:12.616Z,2.50
2018-12-10T00:46:40.522Z,2.83
2018-12-10T00:49:08.291Z,2.42
2018-12-10T00:51:36.629Z,2.30
2018-12-10T00:54:04.242Z,2.55
2018-12-10T00:56:32.772Z,2.40
2018-12-10T00:59:00.479Z,2.98
2018-12-10T01:01:28.023Z,2.72
2018-12-10T01:03:55.786Z,2.40
2018-12-10T01:06:23.760Z,2.30
2018-12-10T01:08:51.370Z,2.70
2018-12-10T01:11:18.782Z,2.70
2018-12-10T01:13:47.009Z,3.00
2018-12-10T01:16:14.611Z,2.30
2018-12-10T01:18:42.429Z,2.70
2018-12-10T01:21:11.078Z,2.40
2018-12-10T01:23:38.483Z,3.37
2018-12-10T01:26:07.222Z,2.42
2018-12-10T01:28:35.085Z,2.80
2018-12-10T01:31:02.977Z,2.52
2018-12-10T01:33:31.239Z,2.83
2018-12-10T01:35:58.815Z,2.70
2018-12-10T01:38:26.648Z,2.62
2018-12-10T01:40:55.144Z,2.80
2018-12-10T01:43:22.703Z,2.90
2018-12-10T01:45:51.352Z,2.50
2018-12-10T01:48:19.046Z,2.57
2018-12-10T01:50:46.878Z,2.52
2018-12-10T01:53:14.287Z,2.52
2018-12-10T01:55:42.271Z,2.40
2018-12-10T01:58:10.303Z,2.40
2018-12-10T02:00:39.106Z,2.00
2018-12-10T02:03:06.758Z,2.50
2018-12-10T02:05:34.956Z,2.10
2018-12-10T02:08:02.347Z,2.22
2018-12-10T02:10:30.167Z,2.10
2018-12-10T02:12:57.915Z,2.45
2018-12-10T02:15:25.532Z,3.80
2018-12-10T02:17:53.082Z,2.60
2018-12-10T02:20:21.364Z,2.35
2018-12-10T02:22:48.859Z,2.40
2018-12-10T02:25:16.742Z,2.15
2018-12-10T02:27:45.551Z,2.40
2018-12-10T02:30:13.583Z,2.25
2018-12-10T02:32:41.330Z,2.02
2018-12-10T02:35:09.264Z,2.33
2018-12-10T02:37:38.024Z,2.00
2018-12-10T02:40:05.937Z,2.20
2018-12-10T02:42:33.963Z,2.50
2018-12-10T02:45:02.941Z,2.08
2018-12-10T02:47:30.362Z,2.30
2018-12-10T02:49:58.359Z,2.10
2018-12-10T02:52:25.813Z,2.05
2018-12-10T02:54:54.127Z,2.25
2018-12-10T02:57:22.315Z,2.23
2018-12-10T02:59:50.017Z,2.70
2018-12-10T03:02:17.838Z,2.70
2018-12-10T03:04:45.292Z,2.02
2018-12-10T03:07:13.476Z,1.80
2018-12-10T03:09:41.523Z,2.15
2018-12-10T03:12:10.236Z,2.00
2018-12-10T03:14:37.740Z,2.15
2018-12-10T03:17:05.479Z,2.10
2018-12-10T03:19:33.072Z,2.10
2018-12-10T03:22:00.474Z,2.20
2018-12-10T03:24:28.946Z,2.30
2018-12-10T03:26:56.403Z,2.10
2018-12-10T03:29:24.012Z,2.20
2018-12-10T03:31:51.802Z,2.08
2018-12-10T03:34:19.661Z,2.20
2018-12-10T03:36:47.470Z,2.80
2018-12-10T03:39:15.956Z,2.72
2018-12-10T03:41:43.815Z,2.60
2018-12-10T03:44:11.483Z,2.20
2018-12-10T03:46:39.448Z,2.00
2018-12-10T03:49:06.878Z,2.00
2018-12-10T03:51:34.690Z,1.70
2018-12-10T03:54:02.328Z,1.80
2018-12-10T03:56:30.503Z,1.67
2018-12-10T03:58:58.579Z,2.00
2018-12-10T04:01:26.913Z,1.98
2018-12-10T04:03:55.146Z,1.80
2018-12-10T04:06:23.718Z,2.00
2018-12-10T04:08:51.478Z,2.10
2018-12-10T04:11:19.345Z,2.10
2018-12-10T04:13:46.922Z,3.30
2018-12-10T04:16:14.784Z,2.60
2018-12-10T04:18:42.527Z,2.57
2018-12-10T04:21:10.127Z,3.20
2018-12-10T04:23:38.372Z,2.90
2018-12-10T04:26:06.027Z,2.40
2018-12-10T04:28:34.627Z,1.98
2018-12-10T04:31:02.722Z,2.37
2018-12-10T04:33:30.359Z,2.90
2018-12-10T04:35:58.435Z,2.27
2018-12-10T04:38:26.776Z,2.20
2018-12-10T04:40:54.644Z,2.50
2018-12-10T04:43:22.372Z,2.40
2018-12-10T04:45:50.143Z,2.30
2018-12-10T04:48:18.847Z,3.05
2018-12-10T04:50:46.367Z,3.30
2018-12-10T04:53:14.003Z,3.02
2018-12-10T04:55:41.687Z,3.00
2018-12-10T04:58:09.338Z,2.75
2018-12-10T05:00:37.212Z,2.98
2018-12-10T05:03:05.206Z,3.30
2018-12-10T05:05:32.767Z,2.85
2018-12-10T05:08:00.603Z,2.70
2018-12-10T05:10:28.256Z,3.00
2018-12-10T05:12:56.912Z,3.20
2018-12-10T05:15:24.838Z,3.10
2018-12-10T05:17:53.201Z,3.00
2018-12-10T05:20:21.370Z,2.90
2018-12-10T05:22:49.138Z,3.10
2018-12-10T05:25:17.106Z,3.00
2018-12-10T05:27:45.178Z,2.57
2018-12-10T05:30:12.779Z,6.33
2018-12-10T05:32:40.699Z,3.40
2018-12-10T05:35:09.257Z,2.62
2018-12-10T05:37:37.903Z,2.60
2018-12-10T05:40:05.547Z,2.40
2018-12-10T05:42:33.713Z,2.80
2018-12-10T05:45:01.373Z,2.60
2018-12-10T05:47:29.507Z,2.40
2018-12-10T05:49:58.042Z,2.60
2018-12-10T05:52:25.473Z,2.98
2018-12-10T05:54:53.168Z,3.30
2018-12-10T05:57:21.018Z,2.50
2018-12-10T05:59:48.544Z,2.50
2018-12-10T06:02:16.489Z,2.70
2018-12-10T06:04:44.110Z,2.90
2018-12-10T06:07:12.009Z,2.35
2018-12-10T06:09:39.645Z,2.83
2018-12-10T06:12:07.559Z,3.00
2018-12-10T06:14:35.269Z,3.15
2018-12-10T06:17:02.828Z,3.00
2018-12-10T06:19:31.307Z,3.30
2018-12-10T06:21:59.071Z,3.20
2018-12-10T06:24:26.757Z,3.40
2018-12-10T06:26:54.821Z,2.67
2018-12-10T06:29:22.771Z,3.20
2018-12-10T06:31:50.549Z,4.05
2018-12-10T06:34:19.277Z,4.47
2018-12-10T06:36:46.962Z,3.47
2018-12-10T06:39:15.114Z,3.27
2018-12-10T06:41:43.005Z,3.00
2018-12-10T06:44:11.142Z,3.15
2018-12-10T06:46:39.394Z,3.22
2018-12-10T06:49:07.378Z,3.30
2018-12-10T06:51:35.292Z,3.03
2018-12-10T06:54:02.898Z,3.20
2018-12-10T06:56:30.473Z,2.90
2018-12-10T06:58:58.383Z,3.92
2018-12-10T07:01:26.494Z,2.50
2018-12-10T07:03:55.171Z,3.58
2018-12-10T07:06:22.931Z,3.70
2018-12-10T07:08:50.341Z,3.00
2018-12-10T07:11:18.476Z,2.70
2018-12-10T07:13:46.082Z,3.17
2018-12-10T07:16:14.370Z,2.90
2018-12-10T07:18:41.901Z,2.70
2018-12-10T07:21:10.043Z,3.15
2018-12-10T07:23:37.747Z,3.47
2018-12-10T07:26:05.194Z,2.47
2018-12-10T07:28:33.034Z,3.00
2018-12-10T07:31:00.575Z,3.60
2018-12-10T07:33:28.795Z,2.77
2018-12-10T07:35:56.739Z,3.17
2018-12-10T07:38:24.706Z,3.30
2018-12-10T07:40:52.622Z,2.80
2018-12-10T07:43:20.565Z,3.50
2018-12-10T07:45:48.278Z,3.40
2018-12-10T07:48:16.170Z,3.20
2018-12-10T07:50:44.311Z,2.83
2018-12-10T07:53:11.978Z,3.10
2018-12-10T07:55:39.682Z,2.58
2018-12-10T07:58:07.288Z,3.73
2018-12-10T08:00:35.016Z,3.10
2018-12-10T08:03:03.443Z,4.60
2018-12-10T08:05:31.862Z,2.40
2018-12-10T08:07:59.691Z,3.15
2018-12-10T08:10:27.682Z,3.00
2018-12-10T08:12:55.868Z,2.83
2018-12-10T08:15:23.462Z,2.98
2018-12-10T08:17:51.505Z,2.70
2018-12-10T08:20:19.473Z,3.00
2018-12-10T08:22:47.752Z,3.07
2018-12-10T08:25:15.166Z,3.12
2018-12-10T08:27:43.558Z,3.05
2018-12-10T08:30:11.015Z,2.50
2018-12-10T08:32:38.646Z,3.37
2018-12-10T08:35:06.719Z,3.40
2018-12-10T08:40:08.230Z,5.20
2018-12-10T08:42:35.890Z,2.85
2018-12-10T08:45:04.411Z,3.25
2018-12-10T08:47:32.602Z,3.50
2018-12-10T08:50:00.255Z,2.95
2018-12-10T08:52:28.302Z,2.60
2018-12-10T08:54:55.768Z,3.20
2018-12-10T08:57:23.431Z,3.08
2018-12-10T08:59:51.218Z,3.00
2018-12-10T09:02:19.433Z,3.10
2018-12-10T09:04:47.167Z,2.70
2018-12-10T09:07:14.753Z,4.10
2018-12-10T09:09:42.942Z,3.22
2018-12-10T09:12:11.146Z,2.98
2018-12-10T09:14:38.725Z,2.55
2018-12-10T09:17:06.054Z,3.00
2018-12-10T09:19:33.573Z,2.52
2018-12-10T09:22:01.797Z,3.58
2018-12-10T09:24:29.233Z,3.02
2018-12-10T09:26:57.105Z,2.50
2018-12-10T09:29:24.725Z,2.30
2018-12-10T09:31:53.202Z,3.12
2018-12-10T09:34:20.810Z,2.80
2018-12-10T09:36:48.392Z,3.50
2018-12-10T09:39:16.550Z,3.42
2018-12-10T09:41:45.061Z,2.85
2018-12-10T09:44:12.446Z,2.45
2018-12-10T09:46:40.567Z,2.77
2018-12-10T09:49:09.836Z,2.52
2018-12-10T09:51:38.144Z,2.55
2018-12-10T09:54:05.597Z,2.45
2018-12-10T09:56:34.152Z,2.70
2018-12-10T09:59:01.855Z,2.30
2018-12-10T10:01:29.529Z,2.60
2018-12-10T10:03:57.793Z,2.20
2018-12-10T10:06:26.461Z,2.08
2018-12-10T10:08:54.452Z,2.08
2018-12-10T10:11:22.822Z,2.30
2018-12-10T10:13:50.623Z,2.10
2018-12-10T10:16:18.417Z,2.43
2018-12-10T10:18:46.488Z,4.25
2018-12-10T10:21:14.355Z,5.40
2018-12-10T10:23:42.018Z,4.55
2018-12-10T10:26:09.987Z,3.15
2018-12-10T10:28:38.162Z,1.98
2018-12-10T10:31:05.793Z,1.57
2018-12-10T10:33:34.690Z,2.00
2018-12-10T10:36:02.649Z,1.20
2018-12-10T10:38:30.194Z,1.20
2018-12-10T10:40:58.346Z,2.00
2018-12-10T10:43:26.109Z,3.15
2018-12-10T10:45:54.017Z,4.60
2018-12-10T10:48:22.355Z,4.15
2018-12-10T10:50:50.562Z,1.90
2018-12-10T10:53:17.960Z,1.85
2018-12-10T10:55:46.023Z,1.70
2018-12-10T10:58:14.446Z,1.80
2018-12-10T11:00:47.647Z,2.05
2018-12-10T11:03:20.746Z,1.40
2018-12-10T11:05:48.708Z,1.85
2018-12-10T11:08:16.554Z,1.60
2018-12-10T11:10:44.680Z,1.80
2018-12-10T11:13:12.615Z,1.80
2018-12-10T11:15:40.967Z,2.08
2018-12-10T11:18:08.555Z,1.60
2018-12-10T11:20:37.121Z,1.40
2018-12-10T11:23:04.547Z,1.60
2018-12-10T11:25:32.358Z,1.35
2018-12-10T11:27:59.791Z,1.60
2018-12-10T11:30:27.227Z,1.32
2018-12-10T11:32:54.874Z,2.20
2018-12-10T11:35:22.356Z,2.65
2018-12-10T11:37:50.158Z,1.60
2018-12-10T11:40:18.335Z,1.40
2018-12-10T11:42:45.914Z,1.40
2018-12-10T11:45:13.983Z,1.20
2018-12-10T11:47:46.413Z,1.20
2018-12-10T11:50:26.981Z,1.60
2018-12-10T11:53:02.603Z,1.60
2018-12-10T11:55:38.984Z,1.40
2018-12-10T11:58:11.103Z,1.50
2018-12-10T12:00:45.665Z,1.60
2018-12-10T12:03:21.399Z,1.43
2018-12-10T12:05:57.380Z,1.50
2018-12-10T12:08:28.742Z,2.00
2018-12-10T12:11:05.503Z,1.90
2018-12-10T12:13:41.999Z,1.90
2018-12-10T12:16:17.087Z,1.70
2018-12-10T12:18:55.275Z,1.90
2018-12-10T12:21:28.013Z,1.70
2018-12-10T12:24:00.428Z,3.70
2018-12-10T12:26:35.619Z,3.30
2018-12-10T12:29:10.877Z,2.00
2018-12-10T12:31:44.445Z,1.70
2018-12-10T12:34:11.911Z,2.00
2018-12-10T12:36:39.579Z,1.82
2018-12-10T12:39:07.691Z,1.92
2018-12-10T12:41:35.629Z,2.20
2018-12-10T12:44:03.143Z,2.00
2018-12-10T12:46:31.604Z,1.92
2018-12-10T12:48:59.086Z,1.65
2018-12-10T12:51:26.947Z,1.80
2018-12-10T12:53:54.530Z,4.37
2018-12-10T12:56:23.108Z,9.55
2018-12-10T12:58:50.700Z,3.98
2018-12-10T13:01:18.846Z,5.50
2018-12-10T13:03:47.020Z,2.70
2018-12-10T13:06:15.296Z,2.40
2018-12-10T13:08:43.011Z,2.27
2018-12-10T13:11:10.833Z,2.17
2018-12-10T13:13:38.223Z,2.50
2018-12-10T13:16:06.072Z,2.15
2018-12-10T13:18:33.981Z,2.00
2018-12-10T13:21:02.835Z,2.10
2018-12-10T13:23:31.391Z,2.02
2018-12-10T13:25:59.104Z,2.83
2018-12-10T13:28:26.871Z,2.83
2018-12-10T13:30:55.354Z,2.05
2018-12-10T13:33:23.333Z,1.87
2018-12-10T13:35:51.132Z,1.90
2018-12-10T13:38:19.094Z,2.20
2018-12-10T13:40:47.659Z,1.70
2018-12-10T13:43:15.566Z,2.10
2018-12-10T13:45:43.250Z,1.67
2018-12-10T13:48:10.842Z,1.40
2018-12-10T13:50:38.763Z,1.65
2018-12-10T13:53:07.192Z,1.52
2018-12-10T13:55:36.639Z,1.70
2018-12-10T13:58:04.372Z,4.40
2018-12-10T14:00:33.074Z,6.83
2018-12-10T14:03:06.307Z,1.40
2018-12-10T14:05:36.130Z,1.40
2018-12-10T14:08:05.559Z,1.42
2018-12-10T14:10:35.333Z,1.17
2018-12-10T14:13:03.098Z,1.25
2018-12-10T14:15:30.715Z,1.20
2018-12-10T14:17:58.449Z,1.37
2018-12-10T14:20:26.290Z,1.37
2018-12-10T14:22:54.183Z,2.63
2018-12-10T14:25:24.834Z,1.60
2018-12-10T14:27:53.213Z,1.37
2018-12-10T14:30:20.856Z,1.47
2018-12-10T14:32:49.314Z,1.30
2018-12-10T14:35:18.531Z,1.37
2018-12-10T14:37:47.914Z,1.35
2018-12-10T14:40:17.155Z,1.10
2018-12-10T14:42:51.261Z,1.23
2018-12-10T14:45:19.113Z,1.10
2018-12-10T14:47:49.992Z,0.90
2018-12-10T14:50:17.833Z,1.10
2018-12-10T14:52:45.434Z,1.07
2018-12-10T14:55:14.050Z,0.93
2018-12-10T14:57:41.916Z,1.10
2018-12-10T15:00:10.580Z,5.83
2018-12-10T15:02:38.036Z,11.08
2018-12-10T15:05:06.807Z,5.10
2018-12-10T15:07:36.074Z,1.12
2018-12-10T15:10:04.058Z,1.10
2018-12-10T15:12:31.935Z,1.30
2018-12-10T15:14:59.671Z,1.00
2018-12-10T15:17:28.111Z,1.20
2018-12-10T15:19:56.105Z,1.10
2018-12-10T15:22:24.421Z,1.60
2018-12-10T15:24:52.904Z,1.20
2018-12-10T15:27:20.750Z,1.55
2018-12-10T15:29:48.578Z,1.32
2018-12-10T15:32:16.279Z,1.50
2018-12-10T15:34:43.854Z,1.50
2018-12-10T15:37:14.448Z,1.40
2018-12-10T15:39:46.169Z,2.08
2018-12-10T15:42:15.714Z,1.82
2018-12-10T15:44:44.070Z,1.80
2018-12-10T15:47:11.991Z,1.90
2018-12-10T15:49:39.868Z,1.90
2018-12-10T15:52:07.457Z,1.80
2018-12-10T15:54:35.018Z,1.70
2018-12-10T15:57:03.259Z,1.70
2018-12-10T15:59:31.043Z,2.20
2018-12-10T16:02:00.023Z,1.70
2018-12-10T16:04:29.664Z,2.20
2018-12-10T16:06:57.950Z,1.87
2018-12-10T16:09:26.895Z,1.90
2018-12-10T16:11:54.802Z,3.75
2018-12-10T16:14:22.481Z,3.47
2018-12-10T16:16:50.869Z,2.45
2018-12-10T16:19:18.380Z,6.40
2018-12-10T16:21:45.818Z,9.70
2018-12-10T16:24:13.327Z,10.23
2018-12-10T16:26:41.458Z,2.70
2018-12-10T16:29:09.653Z,2.40
2018-12-10T16:31:37.371Z,2.00
2018-12-10T16:34:04.919Z,2.60
2018-12-10T16:36:32.621Z,2.42
2018-12-10T16:39:00.923Z,2.62
2018-12-10T16:41:28.548Z,2.67
2018-12-10T16:43:56.303Z,2.15
2018-12-10T16:46:23.851Z,2.00
2018-12-10T16:48:51.591Z,2.80
2018-12-10T16:51:19.250Z,2.55
2018-12-10T16:53:46.816Z,2.50
2018-12-10T16:56:14.328Z,2.00
2018-12-10T16:58:42.334Z,1.87
2018-12-10T17:01:10.096Z,2.30
2018-12-10T17:03:37.554Z,2.30
2018-12-10T17:06:05.749Z,2.55
2018-12-10T17:08:33.457Z,4.43
2018-12-10T17:11:01.122Z,1.90
2018-12-10T17:13:28.922Z,1.77
2018-12-10T17:15:56.326Z,1.82
2018-12-10T17:18:24.798Z,2.35
2018-12-10T17:20:52.495Z,2.10
2018-12-10T17:23:19.968Z,2.20
2018-12-10T17:25:47.402Z,2.20
2018-12-10T17:28:15.047Z,2.08
2018-12-10T17:30:43.045Z,2.15
2018-12-10T17:33:11.074Z,2.05
2018-12-10T17:35:38.874Z,1.80
2018-12-10T17:38:07.039Z,12.90
2018-12-10T17:40:34.453Z,10.63
2018-12-10T17:43:02.198Z,3.23
2018-12-10T17:45:29.929Z,2.70
2018-12-10T17:47:57.692Z,2.33
2018-12-10T17:50:25.735Z,2.40
2018-12-10T17:52:53.303Z,2.60
2018-12-10T17:55:21.653Z,4.40
2018-12-10T17:57:50.540Z,2.52
2018-12-10T18:00:18.916Z,2.70
2018-12-10T18:02:46.575Z,2.30
2018-12-10T18:05:14.968Z,3.00
2018-12-10T18:07:42.786Z,2.65
2018-12-10T18:10:10.215Z,2.85
2018-12-10T18:12:37.767Z,3.00
2018-12-10T18:15:06.045Z,3.00
2018-12-10T18:17:33.646Z,3.10
2018-12-10T18:20:01.547Z,3.50
2018-12-10T18:22:29.155Z,2.98
2018-12-10T18:24:57.282Z,3.50
2018-12-10T18:27:24.834Z,4.62
2018-12-10T18:29:53.391Z,3.80
2018-12-10T18:32:21.663Z,12.15
2018-12-10T18:34:49.419Z,15.05
2018-12-10T18:37:16.829Z,7.22
2018-12-10T18:39:44.649Z,4.90
2018-12-10T18:42:12.307Z,3.50
2018-12-10T18:44:40.050Z,2.90
2018-12-10T18:47:07.697Z,3.23
2018-12-10T18:49:35.268Z,2.60
2018-12-10T18:52:02.806Z,3.60
2018-12-10T18:54:30.729Z,3.33
2018-12-10T18:56:58.999Z,3.87
2018-12-10T18:59:27.220Z,5.50
2018-12-10T19:01:55.156Z,4.20
2018-12-10T19:04:23.579Z,3.80
2018-12-10T19:06:51.181Z,3.90
2018-12-10T19:09:19.327Z,3.92
2018-12-10T19:11:46.996Z,3.80
2018-12-10T19:14:14.963Z,3.50
2018-12-10T19:16:42.858Z,3.00
2018-12-10T19:19:10.351Z,3.30
2018-12-10T19:21:38.016Z,3.00
2018-12-10T19:24:05.815Z,3.25
2018-12-10T19:26:33.483Z,3.60
2018-12-10T19:29:01.416Z,3.17
2018-12-10T19:31:28.949Z,3.10
2018-12-10T19:33:56.643Z,3.90
2018-12-10T19:36:24.856Z,3.60
2018-12-10T19:38:52.714Z,3.60
2018-12-10T19:41:20.275Z,3.60
2018-12-10T19:43:47.937Z,3.80
2018-12-10T19:46:15.499Z,3.77
2018-12-10T19:48:43.810Z,3.45
2018-12-10T19:51:11.670Z,3.12
2018-12-10T19:53:40.430Z,3.62
2018-12-10T19:56:08.024Z,3.77
2018-12-10T19:58:35.506Z,3.30
2018-12-10T20:01:03.782Z,3.12
2018-12-10T20:03:31.721Z,3.62
2018-12-10T20:06:04.730Z,3.77
2018-12-10T20:08:32.207Z,3.90
2018-12-10T20:11:00.600Z,4.15
2018-12-10T20:13:28.718Z,3.77
2018-12-10T20:15:56.151Z,3.90
2018-12-10T20:18:24.204Z,3.55
2018-12-10T20:20:52.230Z,3.80
2018-12-10T20:23:20.162Z,4.70
2018-12-10T20:25:48.119Z,4.33
2018-12-10T20:28:15.617Z,5.10
2018-12-10T20:30:43.292Z,4.00
2018-12-10T20:33:10.757Z,3.72
2018-12-10T20:35:38.219Z,4.00
2018-12-10T20:38:06.092Z,3.30
2018-12-10T20:40:33.566Z,4.28
2018-12-10T20:43:01.253Z,3.85
2018-12-10T20:45:28.917Z,4.42
2018-12-10T20:47:56.431Z,4.75
2018-12-10T20:50:23.924Z,4.80
2018-12-10T20:52:51.543Z,4.40
2018-12-10T20:55:19.076Z,3.90
2018-12-10T20:57:46.766Z,4.05
2018-12-10T21:00:14.678Z,3.85
2018-12-10T21:02:42.186Z,4.28
2018-12-10T21:05:09.631Z,3.70
2018-12-10T21:07:37.152Z,4.20
2018-12-10T21:10:05.335Z,4.50
2018-12-10T21:12:33.095Z,4.35
2018-12-10T21:15:01.016Z,4.57
2018-12-10T21:17:28.486Z,4.10
2018-12-10T21:19:56.173Z,4.50
2018-12-10T21:22:23.902Z,4.22
2018-12-10T21:24:51.777Z,4.50
2018-12-10T21:27:19.215Z,3.90
2018-12-10T21:29:46.769Z,4.12
2018-12-10T21:32:14.175Z,4.20
2018-12-10T21:34:41.608Z,4.40
2018-12-10T21:37:09.314Z,3.80
2018-12-10T21:39:37.048Z,4.37
2018-12-10T21:42:04.787Z,4.30
2018-12-10T21:44:32.225Z,4.40
2018-12-10T21:46:59.643Z,4.40
2018-12-10T21:49:27.783Z,4.40
2018-12-10T21:51:56.362Z,4.87
2018-12-10T21:54:23.941Z,4.70
2018-12-10T21:56:51.493Z,4.67
2018-12-10T21:59:18.965Z,4.40
2018-12-10T22:01:47.381Z,3.85
2018-12-10T22:04:15.249Z,4.70
2018-12-10T22:06:43.243Z,4.75
2018-12-10T22:09:11.585Z,8.80
2018-12-10T22:11:39.350Z,4.37
2018-12-10T22:14:06.921Z,4.30
2018-12-10T22:16:34.729Z,5.80
2018-12-10T22:19:02.452Z,6.17
2018-12-10T22:21:30.354Z,4.10
2018-12-10T22:23:57.885Z,4.30
2018-12-10T22:26:26.196Z,4.30
2018-12-10T22:28:53.749Z,4.50
2018-12-10T22:31:21.129Z,4.30
2018-12-10T22:33:48.769Z,4.30
2018-12-10T22:36:17.864Z,4.40
2018-12-10T22:38:45.473Z,4.20
2018-12-10T22:41:13.080Z,3.87
2018-12-10T22:43:40.888Z,4.13
2018-12-10T22:46:08.514Z,4.03
2018-12-10T22:48:35.921Z,4.20
2018-12-10T22:51:03.448Z,3.83
2018-12-10T22:53:31.399Z,4.30
2018-12-10T22:55:59.029Z,3.85
2018-12-10T22:58:26.836Z,3.72
2018-12-10T23:00:54.699Z,3.62
2018-12-10T23:03:23.392Z,3.40
2018-12-10T23:05:51.536Z,4.08
2018-12-10T23:08:20.206Z,3.95
2018-12-10T23:10:47.815Z,3.87
2018-12-10T23:13:15.478Z,4.23
2018-12-10T23:15:43.595Z,3.90
2018-12-10T23:18:11.814Z,4.12
2018-12-10T23:20:39.682Z,4.08
2018-12-10T23:23:07.446Z,3.97
2018-12-10T23:25:36.171Z,4.17
2018-12-10T23:28:03.999Z,4.30
2018-12-10T23:30:31.637Z,4.05
2018-12-10T23:33:13.035Z,3.63
2018-12-10T23:35:41.852Z,3.60
2018-12-10T23:38:09.486Z,4.40
2018-12-10T23:40:37.333Z,4.20
2018-12-10T23:43:10.524Z,3.90
2018-12-10T23:45:38.413Z,3.95
2018-12-10T23:48:05.766Z,4.10
2018-12-10T23:50:33.756Z,4.42
2018-12-10T23:53:01.664Z,4.60
2018-12-10T23:55:29.322Z,3.98
2018-12-10T23:57:56.699Z,4.00
